Time;durP1;ratioP1;P1;durP2;ratioP2;P2;SDS_P1;SDS_P2;PMS_P1;PMS_P2;Temp;Humidity;BMP_temperature;BMP_pressure;BME280_temperature;BME280_humidity;BME280_pressure;Samples;Min_cycle;Max_cycle;Signal;HPM_P1;HPM_P2
2022/08/27 00:01:39;;;;;;;14.00;6.00;;;;;;;18.75;60.16;97955.41;105806;1277;25340;-70
2022/08/27 00:04:05;;;;;;;9.70;6.30;;;;;;;18.70;61.01;97961.57;105793;1277;22535;-70
2022/08/27 00:06:34;;;;;;;8.70;6.00;;;;;;;18.62;62.40;97962.60;105796;1277;25577;-70
2022/08/27 00:09:02;;;;;;;;;;;;;;;18.53;63.11;97959.48;105844;1277;22528;-70
2022/08/27 00:11:28;;;;;;;8.70;5.70;;;;;;;18.45;63.46;97960.38;105768;1277;24529;-70
2022/08/27 00:13:55;;;;;;;10.20;5.80;;;;;;;18.39;63.20;97957.32;105787;1277;25527;-70
2022/08/27 00:16:23;;;;;;;9.60;5.50;;;;;;;18.35;63.07;97957.50;105775;1277;24309;-70
2022/08/27 00:18:52;;;;;;;8.90;5.80;;;;;;;18.32;63.10;97951.95;105768;1277;24239;-70
2022/08/27 00:21:19;;;;;;;;;;;;;;;18.29;63.10;97951.41;105837;1277;22529;-70
2022/08/27 00:23:46;;;;;;;8.80;6.20;;;;;;;18.26;63.47;97950.14;105819;1277;22622;-70
2022/08/27 00:26:15;;;;;;;8.80;5.30;;;;;;;18.24;63.12;97952.67;105864;1277;25367;-69
2022/08/27 00:28:42;;;;;;;9.10;6.00;;;;;;;18.22;62.86;97952.77;105663;1277;25464;-69
2022/08/27 00:31:10;;;;;;;11.00;5.90;;;;;;;18.20;62.76;97951.73;105758;1277;22749;-69
2022/08/27 00:33:36;;;;;;;9.90;5.70;;;;;;;18.20;62.74;97951.92;105790;1277;23957;-69
2022/08/27 00:36:03;;;;;;;9.40;5.90;;;;;;;18.19;63.17;97949.83;105809;1277;25690;-69
2022/08/27 00:38:30;;;;;;;14.20;5.40;;;;;;;18.18;62.72;97947.73;105805;1277;24319;-69
2022/08/27 00:40:59;;;;;;;8.80;5.90;;;;;;;18.16;62.76;97950.55;105770;1277;24985;-69
2022/08/27 00:43:41;;;;;;;9.80;5.60;;;;;;;18.15;63.09;97950.70;105873;1277;23937;-69
2022/08/27 00:46:34;;;;;;;11.30;6.20;;;;;;;18.13;63.35;97953.66;105794;1277;22655;-69
2022/08/27 00:49:10;;;;;;;10.10;6.40;;;;;;;18.07;64.39;97954.63;105673;1277;25496;-69
2022/08/27 00:51:38;;;;;;;9.90;5.90;;;;;;;18.00;65.32;97958.06;105767;1277;24275;-69
2022/08/27 00:54:08;;;;;;;7.70;5.60;;;;;;;17.94;65.90;97960.38;105666;1277;22560;-70
2022/08/27 00:56:44;;;;;;;10.40;6.30;;;;;;;17.89;66.31;97962.14;105820;1277;25249;-70
2022/08/27 00:59:14;;;;;;;8.50;6.10;;;;;;;17.85;65.72;97960.27;105787;1277;22618;-70
2022/08/27 01:04:36;;;;;;;10.50;6.50;;;;;;;17.79;65.20;97957.75;105810;1277;22567;-70
2022/08/27 01:07:04;;;;;;;10.60;6.40;;;;;;;17.78;65.58;97952.05;105877;1277;23895;-70
2022/08/27 01:09:33;;;;;;;10.50;6.70;;;;;;;17.77;65.47;97955.00;105817;1277;22554;-70
2022/08/27 01:12:00;;;;;;;9.90;6.20;;;;;;;17.76;64.76;97958.10;105776;1277;24418;-70
2022/08/27 01:14:27;;;;;;;10.70;6.00;;;;;;;17.76;64.70;97958.92;105796;1277;22635;-70
2022/08/27 01:16:56;;;;;;;12.20;6.50;;;;;;;17.75;64.68;97965.30;105784;1277;22899;-70
2022/08/27 01:19:27;;;;;;;13.40;7.10;;;;;;;17.73;64.93;97962.06;105834;1277;22757;-70
2022/08/27 01:22:10;;;;;;;10.70;5.80;;;;;;;17.72;64.98;97968.64;105778;1277;22825;-70
2022/08/27 01:24:42;;;;;;;10.60;6.40;;;;;;;17.71;65.03;97964.31;105818;1277;22544;-70
2022/08/27 01:27:16;;;;;;;12.00;6.10;;;;;;;17.72;64.89;97958.73;105873;1277;24345;-70
2022/08/27 01:29:44;;;;;;;10.70;6.40;;;;;;;17.72;64.95;97957.41;105841;1277;24578;-70
2022/08/27 01:32:24;;;;;;;9.90;6.10;;;;;;;17.71;64.75;97954.84;105795;1277;22733;-69
2022/08/27 01:34:52;;;;;;;9.10;6.20;;;;;;;17.69;64.85;97948.70;105785;1277;22541;-69
2022/08/27 01:37:20;;;;;;;12.60;5.90;;;;;;;17.68;65.10;97950.16;105798;1277;23050;-69
2022/08/27 01:39:47;;;;;;;9.30;6.00;;;;;;;17.65;65.34;97949.43;105774;1277;23234;-69
2022/08/27 01:42:19;;;;;;;10.60;6.80;;;;;;;17.63;64.90;97951.79;105777;1277;23929;-69
2022/08/27 01:44:59;;;;;;;9.70;6.20;;;;;;;17.60;65.60;97950.02;105822;1277;22553;-69
2022/08/27 01:47:27;;;;;;;14.80;6.70;;;;;;;17.53;66.10;97942.34;105798;1277;22557;-69
2022/08/27 01:49:54;;;;;;;10.20;5.80;;;;;;;17.47;66.22;97946.84;105806;1277;25369;-70
2022/08/27 01:52:25;;;;;;;10.10;6.00;;;;;;;17.43;66.16;97946.08;105796;1277;24303;-69
2022/08/27 01:54:52;;;;;;;11.20;6.30;;;;;;;17.40;66.86;97944.95;105813;1277;24089;-69
2022/08/27 01:57:20;;;;;;;11.50;6.10;;;;;;;17.38;67.14;97945.58;105782;1277;25247;-69
2022/08/27 01:59:47;;;;;;;8.80;6.10;;;;;;;17.36;67.35;97946.59;105829;1277;24424;-69
2022/08/27 02:02:15;;;;;;;10.40;6.40;;;;;;;17.33;67.68;97945.84;105784;1277;22632;-69
2022/08/27 02:04:44;;;;;;;8.50;6.40;;;;;;;17.31;67.71;97948.30;105850;1277;22532;-69
2022/08/27 02:07:11;;;;;;;11.60;5.70;;;;;;;17.28;67.95;97947.79;105814;1277;24283;-69
2022/08/27 02:09:38;;;;;;;10.10;6.30;;;;;;;17.25;67.62;97942.98;105803;1277;24271;-69
2022/08/27 02:12:05;;;;;;;8.20;6.00;;;;;;;17.24;67.59;97941.09;105793;1276;26000;-69
2022/08/27 02:14:32;;;;;;;8.70;5.80;;;;;;;17.22;67.73;97939.73;105786;1277;22559;-69
2022/08/27 02:16:59;;;;;;;8.10;6.20;;;;;;;17.21;68.24;97935.17;105782;1277;22732;-69
2022/08/27 02:19:26;;;;;;;8.90;6.30;;;;;;;17.20;68.57;97938.12;105789;1277;22586;-69
2022/08/27 02:21:54;;;;;;;11.10;6.20;;;;;;;17.19;69.02;97936.54;105753;1277;22550;-70
2022/08/27 02:24:20;;;;;;;9.40;6.10;;;;;;;17.19;68.94;97940.08;105805;1277;25277;-69
2022/08/27 02:26:47;;;;;;;11.10;7.00;;;;;;;17.18;68.49;97939.86;105841;1277;25525;-69
2022/08/27 02:29:14;;;;;;;12.10;7.20;;;;;;;17.17;68.43;97945.83;105785;1277;25323;-69
2022/08/27 02:31:41;;;;;;;9.30;6.40;;;;;;;17.05;69.03;97949.86;105804;1277;25386;-69
2022/08/27 02:34:09;;;;;;;11.60;6.70;;;;;;;16.93;69.33;97948.41;105779;1277;22552;-69
2022/08/27 02:36:37;;;;;;;9.90;6.50;;;;;;;16.86;69.70;97946.37;105803;1277;24319;-69
2022/08/27 02:39:05;;;;;;;12.70;6.60;;;;;;;16.81;69.83;97948.24;105753;1277;26549;-69
2022/08/27 02:41:32;;;;;;;9.40;6.60;;;;;;;16.78;70.02;97951.25;105843;1277;22545;-69
2022/08/27 02:44:00;;;;;;;9.00;6.30;;;;;;;16.75;70.38;97947.11;105768;1277;23932;-69
2022/08/27 02:46:27;;;;;;;8.20;5.60;;;;;;;16.63;70.52;97947.56;105802;1277;23909;-69
2022/08/27 02:48:54;;;;;;;11.20;6.80;;;;;;;16.52;70.99;97945.59;105808;1277;25443;-69
2022/08/27 02:51:21;;;;;;;9.60;6.90;;;;;;;16.46;71.43;97943.58;105810;1277;22544;-72
2022/08/27 02:53:48;;;;;;;9.60;6.60;;;;;;;16.44;71.48;97942.61;105784;1277;24842;-70
2022/08/27 02:56:15;;;;;;;10.10;6.20;;;;;;;16.42;71.56;97941.77;105768;1277;22557;-70
2022/08/27 02:58:42;;;;;;;10.10;6.30;;;;;;;16.42;71.47;97945.06;105788;1277;25365;-70
2022/08/27 03:01:09;;;;;;;10.50;6.60;;;;;;;16.42;71.93;97944.07;105781;1277;25360;-70
2022/08/27 03:03:35;;;;;;;12.30;6.90;;;;;;;16.42;71.98;97938.08;105808;1277;24253;-70
2022/08/27 03:06:03;;;;;;;12.30;7.50;;;;;;;16.42;71.33;97939.67;105796;1277;26495;-70
2022/08/27 03:08:30;;;;;;;10.70;6.60;;;;;;;16.42;70.90;97934.67;105819;1277;22697;-70
2022/08/27 03:10:57;;;;;;;14.40;7.60;;;;;;;16.40;71.25;97942.52;105809;1277;25261;-70
2022/08/27 03:13:24;;;;;;;12.00;7.00;;;;;;;16.38;71.22;97943.86;105780;1277;22535;-69
2022/08/27 03:15:52;;;;;;;10.90;7.30;;;;;;;16.37;71.21;97941.45;105691;1277;25571;-69
2022/08/27 03:18:20;;;;;;;13.20;7.30;;;;;;;16.37;71.11;97938.38;105597;1277;22554;-69
2022/08/27 03:20:51;;;;;;;11.00;6.90;;;;;;;16.37;71.25;97935.31;105773;1276;25341;-69
2022/08/27 03:23:24;;;;;;;11.50;7.10;;;;;;;16.36;71.70;97933.00;105822;1277;22541;-70
2022/08/27 03:25:56;;;;;;;12.40;7.20;;;;;;;16.36;71.54;97928.11;105792;1277;24449;-69
2022/08/27 03:28:26;;;;;;;10.10;7.40;;;;;;;16.36;71.80;97931.46;105891;1277;22544;-70
2022/08/27 03:30:57;;;;;;;11.50;6.80;;;;;;;16.37;71.88;97929.42;105836;1277;24267;-70
2022/08/27 03:33:25;;;;;;;14.30;7.80;;;;;;;16.38;72.10;97935.33;105802;1277;22551;-70
2022/08/27 03:35:53;;;;;;;11.40;7.10;;;;;;;16.39;72.22;97930.86;105560;1277;22571;-70
2022/08/27 03:38:20;;;;;;;10.50;6.90;;;;;;;16.39;72.04;97928.06;105759;1277;25306;-70
2022/08/27 03:40:47;;;;;;;14.80;7.50;;;;;;;16.40;71.98;97930.80;105785;1277;22858;-70
2022/08/27 03:43:16;;;;;;;11.30;7.40;;;;;;;16.42;72.12;97930.84;105787;1277;22533;-70
2022/08/27 03:45:44;;;;;;;9.70;7.10;;;;;;;16.41;71.98;97923.67;105853;1277;24231;-70
2022/08/27 03:48:13;;;;;;;10.90;7.00;;;;;;;16.42;72.16;97925.37;105874;1277;24243;-70
2022/08/27 03:50:42;;;;;;;12.50;6.90;;;;;;;16.43;72.26;97928.39;105896;1277;25322;-70
2022/08/27 03:53:09;;;;;;;12.40;7.40;;;;;;;16.43;72.07;97931.30;105866;1277;25653;-70
2022/08/27 03:55:36;;;;;;;13.40;8.70;;;;;;;16.43;72.18;97927.40;105760;1277;25357;-70
2022/08/27 03:58:03;;;;;;;12.60;8.70;;;;;;;16.43;72.57;97930.77;105738;1277;22556;-70
2022/08/27 04:04:11;;;;;;;11.80;7.20;;;;;;;16.28;72.88;97925.08;105787;1277;22687;-70
2022/08/27 04:06:39;;;;;;;11.80;7.30;;;;;;;16.23;73.11;97925.04;105812;1277;24235;-70
2022/08/27 04:09:06;;;;;;;11.90;7.40;;;;;;;16.20;73.42;97927.98;105815;1276;22549;-70
2022/08/27 04:11:33;;;;;;;12.50;8.10;;;;;;;16.19;73.64;97927.06;105796;1277;22538;-70
2022/08/27 04:14:04;;;;;;;10.80;8.00;;;;;;;16.20;73.37;97926.68;105794;1277;23961;-70
2022/08/27 04:16:32;;;;;;;14.30;7.90;;;;;;;16.20;73.53;97931.28;106034;1277;30205;-70
2022/08/27 04:18:59;;;;;;;11.50;7.70;;;;;;;16.24;73.66;97932.66;105770;1275;22638;-70
2022/08/27 04:21:26;;;;;;;11.90;7.90;;;;;;;16.27;73.74;97929.98;105782;1277;23926;-70
2022/08/27 04:23:53;;;;;;;10.90;8.30;;;;;;;16.29;74.19;97936.05;105788;1277;22697;-70
2022/08/27 04:26:19;;;;;;;14.80;8.50;;;;;;;16.32;74.29;97934.09;105782;1277;22556;-70
2022/08/27 04:28:46;;;;;;;14.40;8.30;;;;;;;16.35;74.38;97934.65;105771;1276;25710;-70
2022/08/27 04:31:13;;;;;;;11.80;8.10;;;;;;;16.38;74.34;97931.10;105805;1277;22540;-70
2022/08/27 04:33:40;;;;;;;15.80;8.20;;;;;;;16.42;74.23;97932.52;105817;1277;24297;-70
2022/08/27 04:36:09;;;;;;;15.30;8.40;;;;;;;16.47;74.31;97929.88;105783;1277;22537;-72
2022/08/27 04:38:36;;;;;;;11.00;8.20;;;;;;;16.54;74.31;97928.62;105796;1277;22714;-71
2022/08/27 04:41:26;;;;;;;12.20;7.60;;;;;;;16.60;74.05;97927.16;105854;1276;22551;-70
2022/08/27 04:43:56;;;;;;;13.00;7.90;;;;;;;16.67;74.16;97919.42;105793;1277;24221;-69
2022/08/27 04:46:28;;;;;;;14.80;8.00;;;;;;;16.72;74.07;97918.23;105824;1277;24324;-70
2022/08/27 04:48:57;;;;;;;11.70;8.20;;;;;;;16.78;73.90;97916.17;105807;1277;23927;-70
2022/08/27 04:51:25;;;;;;;12.80;8.60;;;;;;;16.82;73.58;97918.20;105896;1276;25506;-69
2022/08/27 04:53:52;;;;;;;11.20;7.80;;;;;;;16.88;73.41;97915.33;105789;1277;22535;-69
2022/08/27 04:56:21;;;;;;;10.60;8.30;;;;;;;16.93;73.25;97917.16;105445;1277;23968;-69
2022/08/27 04:58:50;;;;;;;12.30;8.00;;;;;;;16.98;73.41;97918.91;105594;1277;24883;-69
2022/08/27 05:01:19;;;;;;;10.50;7.40;;;;;;;17.00;73.18;97921.73;105685;1277;24291;-71
2022/08/27 05:03:47;;;;;;;13.70;8.30;;;;;;;17.01;73.40;97925.56;105596;1277;24384;-70
2022/08/27 05:06:14;;;;;;;13.10;8.50;;;;;;;17.03;72.88;97927.79;105658;1277;24479;-71
2022/08/27 05:08:41;;;;;;;17.30;9.30;;;;;;;17.03;72.64;97928.94;105827;1277;25507;-71
2022/08/27 05:11:12;;;;;;;12.40;8.10;;;;;;;17.03;72.60;97926.30;105822;1277;25254;-71
2022/08/27 05:13:40;;;;;;;12.10;7.60;;;;;;;17.05;72.47;97928.31;105860;1276;22543;-69
2022/08/27 05:16:12;;;;;;;12.30;7.80;;;;;;;17.07;72.86;97925.63;105917;1276;22591;-69
2022/08/27 05:18:39;;;;;;;11.20;7.50;;;;;;;17.10;73.13;97921.55;105527;1277;25393;-69
2022/08/27 05:21:07;;;;;;;11.00;7.30;;;;;;;17.15;73.05;97925.19;105793;1277;24312;-70
2022/08/27 05:23:35;;;;;;;8.90;7.00;;;;;;;17.19;73.06;97931.20;105780;1277;22705;-69
2022/08/27 05:26:02;;;;;;;12.40;7.50;;;;;;;17.23;73.29;97935.70;105800;1277;23175;-69
2022/08/27 05:28:29;;;;;;;10.50;7.90;;;;;;;17.23;72.75;97938.62;105815;1277;24285;-69
2022/08/27 05:31:04;;;;;;;12.40;8.60;;;;;;;17.25;72.44;97940.41;105811;1277;22557;-70
2022/08/27 05:33:32;;;;;;;14.40;8.70;;;;;;;17.29;72.16;97943.03;105849;1277;25384;-69
2022/08/27 05:35:59;;;;;;;12.50;8.00;;;;;;;17.34;72.06;97940.02;105838;1277;22550;-70
2022/08/27 05:38:29;;;;;;;15.40;8.90;;;;;;;17.40;72.24;97937.45;105778;1277;22524;-69
2022/08/27 05:41:04;;;;;;;11.00;8.10;;;;;;;17.45;72.20;97933.07;105786;1277;25346;-69
2022/08/27 05:43:32;;;;;;;11.60;7.90;;;;;;;17.51;72.22;97931.14;105762;1277;25229;-69
2022/08/27 05:46:04;;;;;;;12.50;8.50;;;;;;;17.57;72.61;97926.45;105779;1277;24282;-69
2022/08/27 05:48:33;;;;;;;12.30;8.00;;;;;;;17.64;72.69;97924.45;105840;1277;31209;-70
2022/08/27 05:51:17;;;;;;;10.00;8.00;;;;;;;17.71;72.74;97919.27;105855;1277;25349;-70
2022/08/27 05:53:44;;;;;;;9.40;8.20;;;;;;;17.78;73.20;97919.00;105837;1277;22536;-70
2022/08/27 05:56:19;;;;;;;12.90;8.50;;;;;;;17.86;72.71;97921.79;105792;1276;22599;-70
2022/08/27 06:01:40;;;;;;;11.00;8.30;;;;;;;18.05;72.15;97928.13;105873;1277;23957;-70
2022/08/27 06:04:08;;;;;;;13.00;8.70;;;;;;;18.15;72.26;97932.50;105886;1277;24202;-69
2022/08/27 06:06:37;;;;;;;13.90;9.30;;;;;;;18.24;71.89;97936.52;105854;1277;25634;-69
2022/08/27 06:09:05;;;;;;;11.70;7.70;;;;;;;18.34;71.87;97939.39;105880;1277;22787;-70
2022/08/27 06:11:32;;;;;;;13.30;9.00;;;;;;;18.44;71.90;97937.02;105901;1277;25401;-69
2022/08/27 06:13:59;;;;;;;14.40;8.50;;;;;;;18.53;71.93;97934.55;105883;1276;22867;-70
2022/08/27 06:16:27;;;;;;;9.90;8.30;;;;;;;18.61;71.68;97932.06;105931;1277;25588;-69
2022/08/27 06:18:56;;;;;;;12.50;8.30;;;;;;;18.69;71.17;97931.16;105805;1277;22616;-69
2022/08/27 06:21:23;;;;;;;;;;;;;;;18.78;70.63;97931.79;105860;1277;23950;-70
2022/08/27 06:23:50;;;;;;;13.40;9.30;;;;;;;18.86;70.43;97937.30;105770;1277;23091;-70
2022/08/27 06:26:19;;;;;;;16.00;8.40;;;;;;;18.95;70.23;97944.15;105704;1277;22851;-70
2022/08/27 06:28:46;;;;;;;15.50;8.80;;;;;;;19.05;70.16;97949.73;105844;1277;22559;-70
2022/08/27 06:31:15;;;;;;;12.80;8.90;;;;;;;19.14;70.00;97949.27;105817;1277;24301;-70
2022/08/27 06:33:43;;;;;;;14.70;9.40;;;;;;;19.24;69.79;97951.79;105809;1277;24212;-70
2022/08/27 06:36:14;;;;;;;12.60;9.60;;;;;;;19.32;69.52;97956.42;105871;1277;24218;-69
2022/08/27 06:38:43;;;;;;;12.50;8.50;;;;;;;19.40;69.05;97956.36;105792;1277;22552;-69
2022/08/27 06:41:12;;;;;;;14.20;9.10;;;;;;;19.49;68.53;97957.20;105782;1277;24282;-69
2022/08/27 06:43:41;;;;;;;12.50;8.50;;;;;;;19.58;68.42;97954.02;105863;1277;23928;-70
2022/08/27 06:46:11;;;;;;;11.10;8.70;;;;;;;19.66;68.39;97955.23;105834;1277;22575;-69
2022/08/27 06:48:38;;;;;;;12.20;9.40;;;;;;;19.74;68.14;97950.45;104723;1277;1516597;-70
2022/08/27 06:51:08;;;;;;;16.40;8.90;;;;;;;19.84;67.61;97949.46;105755;1277;24226;-70
2022/08/27 06:53:35;;;;;;;11.10;8.60;;;;;;;19.93;67.55;97947.77;105860;1277;22660;-69
2022/08/27 06:56:02;;;;;;;11.20;8.20;;;;;;;20.02;67.23;97954.55;105821;1277;24303;-67
2022/08/27 06:58:29;;;;;;;12.50;8.90;;;;;;;20.15;68.12;97960.06;105764;1277;25655;-70
2022/08/27 07:00:56;;;;;;;15.30;9.10;;;;;;;20.27;67.06;97962.14;105779;1277;25590;-70
2022/08/27 07:03:23;;;;;;;15.90;9.60;;;;;;;20.35;66.17;97963.62;105770;1277;25271;-70
2022/08/27 07:05:50;;;;;;;16.20;9.50;;;;;;;20.43;65.44;97963.62;105766;1277;22537;-70
2022/08/27 07:08:17;;;;;;;13.50;9.00;;;;;;;20.51;65.19;97958.90;105599;1277;22616;-70
2022/08/27 07:10:44;;;;;;;14.50;9.20;;;;;;;20.59;65.34;97963.15;105779;1277;24411;-70
2022/08/27 07:13:11;;;;;;;11.60;9.10;;;;;;;20.67;65.56;97959.45;105840;1277;22700;-70
2022/08/27 07:15:38;;;;;;;15.50;9.40;;;;;;;20.75;65.83;97956.27;105813;1277;22685;-70
2022/08/27 07:18:05;;;;;;;14.60;9.50;;;;;;;20.82;65.68;97953.77;105779;1277;24960;-69
2022/08/27 07:20:32;;;;;;;14.90;9.50;;;;;;;20.90;65.69;97951.98;105767;1277;23948;-70
2022/08/27 07:22:59;;;;;;;12.40;9.30;;;;;;;20.97;65.54;97950.58;105774;1277;22652;-70
2022/08/27 07:25:26;;;;;;;21.60;9.30;;;;;;;21.04;65.61;97956.83;105781;1277;24082;-70
2022/08/27 07:27:53;;;;;;;11.20;8.90;;;;;;;21.11;65.27;97953.70;105780;1277;25416;-70
2022/08/27 07:30:19;;;;;;;13.50;9.00;;;;;;;21.18;64.83;97953.48;105799;1277;22657;-70
2022/08/27 07:32:47;;;;;;;12.00;9.20;;;;;;;21.26;64.56;97955.34;105807;1276;25406;-70
2022/08/27 07:35:14;;;;;;;14.20;9.40;;;;;;;21.33;64.20;97958.17;105834;1277;24249;-70
2022/08/27 07:37:42;;;;;;;16.60;9.00;;;;;;;21.40;64.04;97958.20;105501;1275;24444;-70
2022/08/27 07:40:12;;;;;;;13.70;9.60;;;;;;;21.50;64.04;97961.78;105779;1277;22578;-70
2022/08/27 07:45:28;;;;;;;13.70;8.10;;;;;;;21.71;64.06;97962.73;105798;1277;24275;-72
2022/08/27 07:47:55;;;;;;;14.20;9.50;;;;;;;21.80;63.29;97961.15;105803;1277;22528;-71
2022/08/27 07:50:22;;;;;;;13.00;8.20;;;;;;;21.90;63.23;97963.00;105793;1277;22576;-71
2022/08/27 07:52:50;;;;;;;14.40;9.70;;;;;;;22.01;63.31;97964.71;105518;1277;22540;-71
2022/08/27 07:55:18;;;;;;;14.40;9.50;;;;;;;22.11;63.50;97971.11;105826;1277;24381;-71
2022/08/27 07:57:47;;;;;;;12.50;9.40;;;;;;;22.22;62.49;97977.16;105820;1274;23204;-71
2022/08/27 08:00:14;;;;;;;14.40;9.00;;;;;;;22.32;61.87;97976.88;105718;1277;25497;-72
2022/08/27 08:02:43;;;;;;;16.80;8.90;;;;;;;22.44;61.80;97980.43;105724;1277;25299;-71
2022/08/27 08:05:11;;;;;;;12.20;8.10;;;;;;;22.54;61.27;97981.81;105809;1277;22560;-71
2022/08/27 08:07:39;;;;;;;13.10;8.10;;;;;;;22.65;60.86;97984.13;105771;1277;22535;-72
2022/08/27 08:10:08;;;;;;;20.70;8.60;;;;;;;22.76;60.11;97987.27;105751;1277;22621;-71
2022/08/27 08:12:37;;;;;;;11.70;8.70;;;;;;;22.85;60.27;97994.27;105842;1277;26649;-71
2022/08/27 08:15:09;;;;;;;13.00;8.80;;;;;;;22.94;59.96;97994.70;105886;1277;25498;-69
2022/08/27 08:17:37;;;;;;;12.40;9.10;;;;;;;23.03;59.43;97994.09;105870;1277;24278;-69
2022/08/27 08:20:06;;;;;;;12.70;9.10;;;;;;;23.12;59.16;97988.48;105827;1277;22579;-69
2022/08/27 08:22:33;;;;;;;14.60;9.80;;;;;;;23.20;58.92;97990.61;105823;1277;25609;-69
2022/08/27 08:25:00;;;;;;;14.90;9.00;;;;;;;23.29;58.79;97996.98;105746;1277;25405;-69
2022/08/27 08:27:27;;;;;;;15.50;9.90;;;;;;;23.40;58.15;97996.02;105766;1277;24373;-70
2022/08/27 08:29:54;;;;;;;15.80;8.70;;;;;;;23.50;57.88;97995.36;105744;1277;22688;-65
2022/08/27 08:32:21;;;;;;;17.40;9.10;;;;;;;23.62;58.18;97997.47;105792;1277;22700;-68
2022/08/27 08:34:49;;;;;;;16.20;8.70;;;;;;;23.79;57.59;97997.83;105879;1277;24274;-69
2022/08/27 08:37:17;;;;;;;17.30;8.80;;;;;;;23.96;56.90;97998.41;105810;1277;22549;-69
2022/08/27 08:39:43;;;;;;;10.80;8.50;;;;;;;24.13;56.67;98002.58;105704;1277;25369;-68
2022/08/27 08:42:44;;;;;;;12.10;8.50;;;;;;;24.29;56.08;98005.17;105716;1277;22531;-68
2022/08/27 08:45:18;;;;;;;13.40;8.30;;;;;;;24.46;55.31;98007.05;105656;1277;22544;-68
2022/08/27 08:47:52;;;;;;;13.20;8.50;;;;;;;24.56;55.22;98007.59;105638;1277;23258;-69
2022/08/27 08:50:25;;;;;;;13.40;9.10;;;;;;;24.68;55.11;98011.92;105629;1277;25566;-69
2022/08/27 08:53:05;;;;;;;16.30;8.50;;;;;;;24.78;54.51;98015.18;105728;1277;22557;-68
2022/08/27 08:55:54;;;;;;;11.90;7.70;;;;;;;24.90;54.03;98019.77;105775;1277;25723;-69
2022/08/27 08:58:45;;;;;;;13.10;8.90;;;;;;;25.04;53.72;98016.53;105804;1277;22546;-70
2022/08/27 09:01:15;;;;;;;16.30;9.50;;;;;;;25.15;53.19;98013.46;105781;1277;22673;-69
2022/08/27 09:03:51;;;;;;;15.60;10.20;;;;;;;25.24;53.44;98013.66;105800;1277;25207;-69
2022/08/27 09:06:39;;;;;;;12.60;8.70;;;;;;;25.38;53.81;98013.82;105493;1277;22537;-69
2022/08/27 09:09:46;;;;;;;14.30;8.30;;;;;;;25.52;53.89;98011.85;105787;1277;25506;-69
2022/08/27 09:12:23;;;;;;;11.50;8.10;;;;;;;25.68;53.14;98007.66;105495;1277;25606;-70
2022/08/27 09:15:02;;;;;;;14.50;8.70;;;;;;;25.81;53.26;98011.83;105861;1277;22506;-70
2022/08/27 09:17:30;;;;;;;13.60;8.40;;;;;;;25.93;52.48;98011.54;105843;1277;22535;-71
2022/08/27 09:19:56;;;;;;;12.50;7.30;;;;;;;26.03;51.70;98009.96;105771;1277;22752;-69
2022/08/27 09:22:37;;;;;;;16.10;8.70;;;;;;;26.16;51.64;98007.27;105749;1277;22550;-69
2022/08/27 09:25:19;;;;;;;14.80;8.40;;;;;;;26.28;51.60;98008.46;105806;1277;22698;-69
2022/08/27 09:27:48;;;;;;;13.40;8.10;;;;;;;26.39;51.29;98007.45;105808;1277;22702;-69
2022/08/27 09:30:22;;;;;;;14.60;8.30;;;;;;;26.49;50.91;98007.14;105901;1277;25248;-70
2022/08/27 09:32:55;;;;;;;13.00;7.30;;;;;;;26.62;50.43;98006.90;106050;1277;30741;-70
2022/08/27 09:35:26;;;;;;;8.30;7.10;;;;;;;26.75;49.66;98007.21;105791;1277;25573;-69
2022/08/27 09:37:54;;;;;;;13.70;8.00;;;;;;;26.87;48.93;98010.45;105827;1277;22531;-69
2022/08/27 09:40:30;;;;;;;11.30;8.00;;;;;;;26.98;48.52;98008.45;105797;1277;22681;-70
2022/08/27 09:43:23;;;;;;;14.60;7.10;;;;;;;27.11;48.66;98007.13;105813;1277;25363;-70
2022/08/27 09:46:05;;;;;;;10.50;6.90;;;;;;;27.21;47.64;98007.42;105782;1277;23084;-70
2022/08/27 09:48:34;;;;;;;10.70;6.80;;;;;;;27.28;47.37;98008.23;105779;1277;24387;-70
2022/08/27 09:51:08;;;;;;;10.70;6.40;;;;;;;27.34;47.80;98003.42;105834;1277;24432;-70
2022/08/27 09:53:49;;;;;;;12.10;6.80;;;;;;;27.40;46.78;98006.27;105811;1277;22531;-70
2022/08/27 09:56:30;;;;;;;8.00;5.90;;;;;;;27.41;46.96;98005.48;105846;1277;25653;-70
2022/08/27 09:59:05;;;;;;;7.70;6.10;;;;;;;27.46;46.72;98001.19;105808;1277;25242;-70
2022/08/27 10:01:37;;;;;;;8.30;5.00;;;;;;;27.59;45.84;97997.06;105823;1277;24302;-70
2022/08/27 10:04:13;;;;;;;9.10;5.60;;;;;;;27.73;44.69;97994.05;105778;1277;22553;-70
2022/08/27 10:06:48;;;;;;;8.40;5.70;;;;;;;27.91;44.28;97994.55;105805;1277;24355;-70
2022/08/27 10:09:32;;;;;;;8.20;4.60;;;;;;;28.07;43.14;97995.64;105815;1277;22548;-70
2022/08/27 10:12:16;;;;;;;11.70;5.10;;;;;;;28.20;43.21;97992.59;105751;1277;22555;-69
2022/08/27 10:14:50;;;;;;;8.40;5.00;;;;;;;28.28;42.35;97987.92;105873;1277;24300;-70
2022/08/27 10:17:35;;;;;;;6.60;5.10;;;;;;;28.40;42.82;97984.30;105882;1277;24233;-70
2022/08/27 10:20:13;;;;;;;9.50;5.30;;;;;;;28.55;42.30;97988.87;105856;1277;22556;-70
2022/08/27 10:22:51;;;;;;;9.20;5.70;;;;;;;28.63;41.19;97984.58;105800;1277;24317;-70
2022/08/27 10:25:35;;;;;;;8.40;5.20;;;;;;;28.65;40.24;97985.02;105877;1277;22780;-70
2022/08/27 10:28:20;;;;;;;9.40;4.60;;;;;;;28.74;40.04;97984.27;105847;1277;25416;-70
2022/08/27 10:30:59;;;;;;;8.00;5.20;;;;;;;28.82;40.24;97983.66;105833;1277;23074;-70
2022/08/27 10:33:54;;;;;;;7.80;5.10;;;;;;;28.87;39.58;97983.42;105861;1277;22557;-70
2022/08/27 10:36:27;;;;;;;13.60;5.30;;;;;;;28.94;38.87;97979.36;105882;1278;22607;-70
2022/08/27 10:38:56;;;;;;;7.40;4.50;;;;;;;29.03;38.75;97980.84;105882;1277;22538;-69
2022/08/27 10:41:50;;;;;;;8.50;5.20;;;;;;;29.12;38.10;97981.19;105896;1277;22563;-70
2022/08/27 10:44:26;;;;;;;8.30;4.80;;;;;;;29.24;38.40;97982.48;105825;1277;30340;-70
2022/08/27 10:47:23;;;;;;;7.90;4.80;;;;;;;29.38;37.74;97978.52;105563;1277;24301;-70
2022/08/27 10:50:26;;;;;;;10.10;5.50;;;;;;;29.58;37.68;97980.73;105859;1277;24374;-70
2022/08/27 10:53:25;;;;;;;9.30;4.60;;;;;;;29.74;37.63;97976.60;105963;1277;24243;-70
2022/08/27 10:56:07;;;;;;;8.20;4.20;;;;;;;29.91;37.07;97967.55;105647;1277;22585;-70
2022/08/27 10:58:54;;;;;;;8.20;4.30;;;;;;;30.06;37.40;97965.20;105889;1277;25225;-70
2022/08/27 11:01:43;;;;;;;6.40;4.60;;;;;;;30.23;36.49;97961.27;105315;1283;24312;-70
2022/08/27 11:04:19;;;;;;;6.60;4.30;;;;;;;30.37;36.30;97961.96;105266;1283;22612;-70
2022/08/27 11:06:56;;;;;;;8.20;4.30;;;;;;;30.49;35.90;97960.92;105255;1283;24429;-69
2022/08/27 11:09:45;;;;;;;13.30;4.70;;;;;;;30.62;34.87;97963.11;105320;1283;23939;-68
2022/08/27 11:12:17;;;;;;;10.00;4.00;;;;;;;30.75;34.75;97962.72;105260;1283;22595;-69
2022/08/27 11:14:51;;;;;;;10.90;3.90;;;;;;;30.88;34.14;97960.39;105399;1283;25628;-69
2022/08/27 11:17:40;;;;;;;8.90;3.80;;;;;;;31.02;33.35;97961.29;105399;1281;22879;-69
2022/08/27 11:20:17;;;;;;;18.70;4.60;;;;;;;31.10;33.71;97964.38;105322;1281;25187;-69
2022/08/27 11:22:56;;;;;;;11.10;4.50;;;;;;;31.16;33.94;97961.52;105349;1281;24058;-69
2022/08/27 11:25:45;;;;;;;6.50;4.40;;;;;;;31.26;33.86;97962.60;105231;1283;30485;-69
2022/08/27 11:28:13;;;;;;;7.80;4.20;;;;;;;31.29;33.15;97960.61;105297;1283;24431;-69
2022/08/27 11:30:48;;;;;;;11.60;4.80;;;;;;;31.39;33.75;97962.73;105246;1283;22553;-68
2022/08/27 11:33:28;;;;;;;10.30;5.10;;;;;;;31.47;33.59;97962.66;105355;1283;22766;-69
2022/08/27 11:36:23;;;;;;;9.90;5.40;;;;;;;31.53;33.88;97964.42;105319;1283;22729;-69
2022/08/27 11:39:09;;;;;;;8.70;5.50;;;;;;;31.58;34.98;97966.67;105575;1278;23923;-69
2022/08/27 11:41:44;;;;;;;9.90;5.30;;;;;;;31.63;35.79;97963.55;105908;1277;25321;-68
2022/08/27 11:44:13;;;;;;;7.20;4.60;;;;;;;31.67;35.15;97961.72;105871;1277;25281;-69
2022/08/27 11:46:47;;;;;;;14.00;5.70;;;;;;;31.71;34.86;97955.61;105848;1277;22912;-68
2022/08/27 11:49:32;;;;;;;11.90;5.30;;;;;;;31.76;34.38;97954.34;105897;1277;22544;-69
2022/08/27 11:52:03;;;;;;;10.20;4.90;;;;;;;31.82;34.40;97949.84;105553;1277;22575;-69